sensor_id;sensor_type;location;lat;lon;timestamp;temperature;humidity
14119;DHT22;7138;49.246;9.100;2023-04-28T00:01:41;10.30;99.90
14119;DHT22;7138;49.246;9.100;2023-04-28T00:04:08;10.30;99.90
14119;DHT22;7138;49.246;9.100;2023-04-28T00:06:34;10.30;99.90
14119;DHT22;7138;49.246;9.100;2023-04-28T00:09:01;10.30;99.90
14119;DHT22;7138;49.246;9.100;2023-04-28T00:11:28;10.30;99.90
14119;DHT22;7138;49.246;9.100;2023-04-28T00:13:53;10.20;99.90
14119;DHT22;7138;49.246;9.100;2023-04-28T00:16:19;10.20;99.90
14119;DHT22;7138;49.246;9.100;2023-04-28T00:18:45;10.20;99.90
14119;DHT22;7138;49.246;9.100;2023-04-28T00:21:13;10.20;99.90
14119;DHT22;7138;49.246;9.100;2023-04-28T00:23:39;10.20;99.90
14119;DHT22;7138;49.246;9.100;2023-04-28T00:26:05;10.30;99.90
14119;DHT22;7138;49.246;9.100;2023-04-28T00:28:30;10.20;99.90
14119;DHT22;7138;49.246;9.100;2023-04-28T00:30:56;10.10;99.90
14119;DHT22;7138;49.246;9.100;2023-04-28T00:33:22;10.10;99.90
14119;DHT22;7138;49.246;9.100;2023-04-28T00:35:48;10.00;99.90
14119;DHT22;7138;49.246;9.100;2023-04-28T00:38:15;9.90;99.90
14119;DHT22;7138;49.246;9.100;2023-04-28T00:40:41;9.90;99.90
14119;DHT22;7138;49.246;9.100;2023-04-28T00:43:07;9.90;99.90
14119;DHT22;7138;49.246;9.100;2023-04-28T00:45:32;9.90;99.90
14119;DHT22;7138;49.246;9.100;2023-04-28T00:47:59;9.90;99.90
14119;DHT22;7138;49.246;9.100;2023-04-28T00:50:27;9.70;99.90
14119;DHT22;7138;49.246;9.100;2023-04-28T00:52:53;9.70;99.90
14119;DHT22;7138;49.246;9.100;2023-04-28T00:55:21;9.50;99.90
14119;DHT22;7138;49.246;9.100;2023-04-28T00:57:49;9.40;99.90
14119;DHT22;7138;49.246;9.100;2023-04-28T01:00:16;9.50;99.90
14119;DHT22;7138;49.246;9.100;2023-04-28T01:02:42;9.50;99.90
14119;DHT22;7138;49.246;9.100;2023-04-28T01:05:08;9.30;99.90
14119;DHT22;7138;49.246;9.100;2023-04-28T01:07:35;9.40;99.90
14119;DHT22;7138;49.246;9.100;2023-04-28T01:10:01;9.40;99.90
14119;DHT22;7138;49.246;9.100;2023-04-28T01:12:29;9.40;99.90
14119;DHT22;7138;49.246;9.100;2023-04-28T01:14:55;9.30;99.90
14119;DHT22;7138;49.246;9.100;2023-04-28T01:17:21;9.30;99.90
14119;DHT22;7138;49.246;9.100;2023-04-28T01:19:47;9.30;99.90
14119;DHT22;7138;49.246;9.100;2023-04-28T01:22:13;9.30;99.90
14119;DHT22;7138;49.246;9.100;2023-04-28T01:24:42;9.30;99.90
14119;DHT22;7138;49.246;9.100;2023-04-28T01:27:07;9.30;99.90
14119;DHT22;7138;49.246;9.100;2023-04-28T01:29:33;9.40;99.90
14119;DHT22;7138;49.246;9.100;2023-04-28T01:31:59;9.50;99.90
14119;DHT22;7138;49.246;9.100;2023-04-28T01:34:25;9.50;99.90
14119;DHT22;7138;49.246;9.100;2023-04-28T01:36:51;9.50;99.90
14119;DHT22;7138;49.246;9.100;2023-04-28T01:39:17;9.40;99.90
14119;DHT22;7138;49.246;9.100;2023-04-28T01:41:44;9.40;99.90
14119;DHT22;7138;49.246;9.100;2023-04-28T01:44:10;9.40;99.90
14119;DHT22;7138;49.246;9.100;2023-04-28T01:46:37;9.40;99.90
14119;DHT22;7138;49.246;9.100;2023-04-28T01:49:03;9.40;99.90
14119;DHT22;7138;49.246;9.100;2023-04-28T01:51:29;9.40;99.90
14119;DHT22;7138;49.246;9.100;2023-04-28T01:53:55;9.40;99.90
14119;DHT22;7138;49.246;9.100;2023-04-28T01:56:21;9.40;99.90
14119;DHT22;7138;49.246;9.100;2023-04-28T01:58:48;9.40;99.90
14119;DHT22;7138;49.246;9.100;2023-04-28T02:01:14;9.30;99.90
14119;DHT22;7138;49.246;9.100;2023-04-28T02:03:40;9.30;99.90
14119;DHT22;7138;49.246;9.100;2023-04-28T02:06:06;9.30;99.90
14119;DHT22;7138;49.246;9.100;2023-04-28T02:08:31;9.30;99.90
14119;DHT22;7138;49.246;9.100;2023-04-28T02:10:57;9.40;99.90
14119;DHT22;7138;49.246;9.100;2023-04-28T02:13:24;9.40;99.90
14119;DHT22;7138;49.246;9.100;2023-04-28T02:15:51;9.30;99.90
14119;DHT22;7138;49.246;9.100;2023-04-28T02:18:17;9.30;99.90
14119;DHT22;7138;49.246;9.100;2023-04-28T02:20:42;9.30;99.90
14119;DHT22;7138;49.246;9.100;2023-04-28T02:23:08;9.20;99.90
14119;DHT22;7138;49.246;9.100;2023-04-28T02:25:34;9.30;99.90
14119;DHT22;7138;49.246;9.100;2023-04-28T02:28:00;9.20;99.90
14119;DHT22;7138;49.246;9.100;2023-04-28T02:30:26;9.20;99.90
14119;DHT22;7138;49.246;9.100;2023-04-28T02:32:53;9.20;99.90
14119;DHT22;7138;49.246;9.100;2023-04-28T02:35:19;9.20;99.90
14119;DHT22;7138;49.246;9.100;2023-04-28T02:37:45;9.20;99.90
14119;DHT22;7138;49.246;9.100;2023-04-28T02:40:11;9.20;99.90
14119;DHT22;7138;49.246;9.100;2023-04-28T02:42:37;9.20;99.90
14119;DHT22;7138;49.246;9.100;2023-04-28T02:45:04;9.10;99.90
14119;DHT22;7138;49.246;9.100;2023-04-28T02:47:31;9.20;99.90
14119;DHT22;7138;49.246;9.100;2023-04-28T02:49:58;9.20;99.90
14119;DHT22;7138;49.246;9.100;2023-04-28T02:52:24;9.10;99.90
14119;DHT22;7138;49.246;9.100;2023-04-28T02:54:50;9.10;99.90
14119;DHT22;7138;49.246;9.100;2023-04-28T02:57:18;9.00;99.90
14119;DHT22;7138;49.246;9.100;2023-04-28T02:59:44;9.10;99.90
14119;DHT22;7138;49.246;9.100;2023-04-28T03:02:10;9.10;99.90
14119;DHT22;7138;49.246;9.100;2023-04-28T03:04:37;9.00;99.90
14119;DHT22;7138;49.246;9.100;2023-04-28T03:07:04;9.10;99.90
14119;DHT22;7138;49.246;9.100;2023-04-28T03:09:30;9.10;99.90
14119;DHT22;7138;49.246;9.100;2023-04-28T03:11:56;9.00;99.90
14119;DHT22;7138;49.246;9.100;2023-04-28T03:14:22;9.10;99.90
14119;DHT22;7138;49.246;9.100;2023-04-28T03:16:48;9.00;99.90
14119;DHT22;7138;49.246;9.100;2023-04-28T03:19:13;9.10;99.90
14119;DHT22;7138;49.246;9.100;2023-04-28T03:21:39;9.10;99.90
14119;DHT22;7138;49.246;9.100;2023-04-28T03:24:07;9.00;99.90
14119;DHT22;7138;49.246;9.100;2023-04-28T03:26:33;8.90;99.90
14119;DHT22;7138;49.246;9.100;2023-04-28T03:28:59;8.90;99.90
14119;DHT22;7138;49.246;9.100;2023-04-28T03:31:25;9.00;99.90
14119;DHT22;7138;49.246;9.100;2023-04-28T03:33:51;9.00;99.90
14119;DHT22;7138;49.246;9.100;2023-04-28T03:36:16;8.90;99.90
14119;DHT22;7138;49.246;9.100;2023-04-28T03:38:42;8.80;99.90
14119;DHT22;7138;49.246;9.100;2023-04-28T03:41:09;8.80;99.90
14119;DHT22;7138;49.246;9.100;2023-04-28T03:43:35;8.80;99.90
14119;DHT22;7138;49.246;9.100;2023-04-28T03:46:02;8.70;99.90
14119;DHT22;7138;49.246;9.100;2023-04-28T03:48:28;8.80;99.90
14119;DHT22;7138;49.246;9.100;2023-04-28T03:50:54;8.70;99.90
14119;DHT22;7138;49.246;9.100;2023-04-28T03:53:20;8.80;99.90
14119;DHT22;7138;49.246;9.100;2023-04-28T03:55:46;8.80;99.90
14119;DHT22;7138;49.246;9.100;2023-04-28T03:58:13;8.90;99.90
14119;DHT22;7138;49.246;9.100;2023-04-28T04:00:39;8.90;99.90
14119;DHT22;7138;49.246;9.100;2023-04-28T04:03:04;8.90;99.90
14119;DHT22;7138;49.246;9.100;2023-04-28T04:05:30;8.90;99.90
14119;DHT22;7138;49.246;9.100;2023-04-28T04:07:56;8.90;99.90
14119;DHT22;7138;49.246;9.100;2023-04-28T04:10:23;9.00;99.90
14119;DHT22;7138;49.246;9.100;2023-04-28T04:12:48;9.00;99.90
14119;DHT22;7138;49.246;9.100;2023-04-28T04:15:15;9.00;99.90
14119;DHT22;7138;49.246;9.100;2023-04-28T04:17:41;9.00;99.90
14119;DHT22;7138;49.246;9.100;2023-04-28T04:20:08;9.00;99.90
14119;DHT22;7138;49.246;9.100;2023-04-28T04:22:34;9.00;99.90
14119;DHT22;7138;49.246;9.100;2023-04-28T04:25:00;9.00;99.90
14119;DHT22;7138;49.246;9.100;2023-04-28T04:27:27;9.10;99.90
14119;DHT22;7138;49.246;9.100;2023-04-28T04:29:52;9.10;99.90
14119;DHT22;7138;49.246;9.100;2023-04-28T04:32:19;9.10;99.90
14119;DHT22;7138;49.246;9.100;2023-04-28T04:34:45;9.10;99.90
14119;DHT22;7138;49.246;9.100;2023-04-28T04:37:11;9.10;99.90
14119;DHT22;7138;49.246;9.100;2023-04-28T04:39:37;9.20;99.90
14119;DHT22;7138;49.246;9.100;2023-04-28T04:42:03;9.20;99.90
14119;DHT22;7138;49.246;9.100;2023-04-28T04:44:29;9.20;99.90
14119;DHT22;7138;49.246;9.100;2023-04-28T04:46:55;9.20;99.90
14119;DHT22;7138;49.246;9.100;2023-04-28T04:49:22;9.20;99.90
14119;DHT22;7138;49.246;9.100;2023-04-28T04:51:48;9.20;99.90
14119;DHT22;7138;49.246;9.100;2023-04-28T04:54:13;9.20;99.90
14119;DHT22;7138;49.246;9.100;2023-04-28T04:56:39;9.20;99.90
14119;DHT22;7138;49.246;9.100;2023-04-28T04:59:07;9.20;99.90
14119;DHT22;7138;49.246;9.100;2023-04-28T05:01:33;9.30;99.90
14119;DHT22;7138;49.246;9.100;2023-04-28T05:03:58;9.30;99.90
14119;DHT22;7138;49.246;9.100;2023-04-28T05:06:26;9.50;99.90
14119;DHT22;7138;49.246;9.100;2023-04-28T05:08:52;9.50;99.90
14119;DHT22;7138;49.246;9.100;2023-04-28T05:11:17;9.40;99.90
14119;DHT22;7138;49.246;9.100;2023-04-28T05:13:43;9.50;99.90
14119;DHT22;7138;49.246;9.100;2023-04-28T05:16:09;9.50;99.90
14119;DHT22;7138;49.246;9.100;2023-04-28T05:18:35;9.40;99.90
14119;DHT22;7138;49.246;9.100;2023-04-28T05:21:01;9.40;99.90
14119;DHT22;7138;49.246;9.100;2023-04-28T05:23:28;9.40;99.90
14119;DHT22;7138;49.246;9.100;2023-04-28T05:25:54;9.40;99.90
14119;DHT22;7138;49.246;9.100;2023-04-28T05:28:20;9.50;99.90
14119;DHT22;7138;49.246;9.100;2023-04-28T05:30:46;9.50;99.90
14119;DHT22;7138;49.246;9.100;2023-04-28T05:33:12;9.60;99.90
14119;DHT22;7138;49.246;9.100;2023-04-28T05:35:38;9.60;99.90
14119;DHT22;7138;49.246;9.100;2023-04-28T05:38:04;9.50;99.90
14119;DHT22;7138;49.246;9.100;2023-04-28T05:40:32;9.60;99.90
14119;DHT22;7138;49.246;9.100;2023-04-28T05:42:58;9.50;99.90
14119;DHT22;7138;49.246;9.100;2023-04-28T05:45:24;9.50;99.90
14119;DHT22;7138;49.246;9.100;2023-04-28T05:47:50;9.50;99.90
14119;DHT22;7138;49.246;9.100;2023-04-28T05:50:16;9.40;99.90
14119;DHT22;7138;49.246;9.100;2023-04-28T05:52:42;9.40;99.90
14119;DHT22;7138;49.246;9.100;2023-04-28T05:55:08;9.50;99.90
14119;DHT22;7138;49.246;9.100;2023-04-28T05:57:36;9.50;99.90
14119;DHT22;7138;49.246;9.100;2023-04-28T06:00:02;9.50;99.90
14119;DHT22;7138;49.246;9.100;2023-04-28T06:02:28;9.50;99.90
14119;DHT22;7138;49.246;9.100;2023-04-28T06:04:54;9.60;99.90
14119;DHT22;7138;49.246;9.100;2023-04-28T06:07:20;9.70;99.90
14119;DHT22;7138;49.246;9.100;2023-04-28T06:09:46;9.70;99.90
14119;DHT22;7138;49.246;9.100;2023-04-28T06:12:12;9.70;99.90
14119;DHT22;7138;49.246;9.100;2023-04-28T06:14:39;9.70;99.90
14119;DHT22;7138;49.246;9.100;2023-04-28T06:17:05;9.70;99.90
14119;DHT22;7138;49.246;9.100;2023-04-28T06:19:31;9.80;99.90
14119;DHT22;7138;49.246;9.100;2023-04-28T06:21:57;9.80;99.90
14119;DHT22;7138;49.246;9.100;2023-04-28T06:24:23;9.80;99.90
14119;DHT22;7138;49.246;9.100;2023-04-28T06:26:48;9.70;99.90
14119;DHT22;7138;49.246;9.100;2023-04-28T06:29:14;9.80;99.90
14119;DHT22;7138;49.246;9.100;2023-04-28T06:31:42;9.80;99.90
14119;DHT22;7138;49.246;9.100;2023-04-28T06:34:07;9.90;99.90
14119;DHT22;7138;49.246;9.100;2023-04-28T06:36:33;9.90;99.90
14119;DHT22;7138;49.246;9.100;2023-04-28T06:38:59;9.90;99.90
14119;DHT22;7138;49.246;9.100;2023-04-28T06:41:25;9.90;99.90
14119;DHT22;7138;49.246;9.100;2023-04-28T06:43:51;9.90;99.90
14119;DHT22;7138;49.246;9.100;2023-04-28T06:46:16;9.90;99.90
14119;DHT22;7138;49.246;9.100;2023-04-28T06:48:43;9.90;99.90
14119;DHT22;7138;49.246;9.100;2023-04-28T06:51:09;9.90;99.90
14119;DHT22;7138;49.246;9.100;2023-04-28T06:53:35;9.90;99.90
14119;DHT22;7138;49.246;9.100;2023-04-28T06:56:01;9.90;99.90
14119;DHT22;7138;49.246;9.100;2023-04-28T06:58:28;9.90;99.90
14119;DHT22;7138;49.246;9.100;2023-04-28T07:00:53;9.90;99.90
14119;DHT22;7138;49.246;9.100;2023-04-28T07:03:19;9.90;99.90
14119;DHT22;7138;49.246;9.100;2023-04-28T07:05:46;10.00;99.90
14119;DHT22;7138;49.246;9.100;2023-04-28T07:08:13;9.90;99.90
14119;DHT22;7138;49.246;9.100;2023-04-28T07:10:38;10.00;99.90
14119;DHT22;7138;49.246;9.100;2023-04-28T07:13:04;10.00;99.90
14119;DHT22;7138;49.246;9.100;2023-04-28T07:15:30;10.00;99.90
14119;DHT22;7138;49.246;9.100;2023-04-28T07:17:56;10.00;99.90
14119;DHT22;7138;49.246;9.100;2023-04-28T07:20:22;10.00;99.90
14119;DHT22;7138;49.246;9.100;2023-04-28T07:22:49;10.10;99.90
14119;DHT22;7138;49.246;9.100;2023-04-28T07:25:15;10.20;99.90
14119;DHT22;7138;49.246;9.100;2023-04-28T07:27:41;10.20;99.90
14119;DHT22;7138;49.246;9.100;2023-04-28T07:30:07;10.10;99.90
14119;DHT22;7138;49.246;9.100;2023-04-28T07:32:33;10.00;99.90
14119;DHT22;7138;49.246;9.100;2023-04-28T07:34:59;10.10;99.90
14119;DHT22;7138;49.246;9.100;2023-04-28T07:37:25;10.10;99.90
14119;DHT22;7138;49.246;9.100;2023-04-28T07:39:53;10.10;99.90
14119;DHT22;7138;49.246;9.100;2023-04-28T07:42:18;10.20;99.90
14119;DHT22;7138;49.246;9.100;2023-04-28T07:44:44;10.10;99.90
14119;DHT22;7138;49.246;9.100;2023-04-28T07:47:10;10.20;99.90
14119;DHT22;7138;49.246;9.100;2023-04-28T07:49:36;10.30;99.90
14119;DHT22;7138;49.246;9.100;2023-04-28T07:52:02;10.30;99.90
14119;DHT22;7138;49.246;9.100;2023-04-28T07:54:31;10.30;99.90
14119;DHT22;7138;49.246;9.100;2023-04-28T07:56:58;10.30;99.90
14119;DHT22;7138;49.246;9.100;2023-04-28T07:59:25;10.30;99.90
14119;DHT22;7138;49.246;9.100;2023-04-28T08:01:51;10.40;99.90
14119;DHT22;7138;49.246;9.100;2023-04-28T08:04:17;10.50;99.90
14119;DHT22;7138;49.246;9.100;2023-04-28T08:06:43;10.30;99.90
14119;DHT22;7138;49.246;9.100;2023-04-28T08:09:08;10.50;99.90
14119;DHT22;7138;49.246;9.100;2023-04-28T08:11:34;10.60;99.90
14119;DHT22;7138;49.246;9.100;2023-04-28T08:14:01;10.60;99.90
14119;DHT22;7138;49.246;9.100;2023-04-28T08:16:28;10.60;99.90
14119;DHT22;7138;49.246;9.100;2023-04-28T08:18:55;10.70;99.90
14119;DHT22;7138;49.246;9.100;2023-04-28T08:21:21;10.70;99.90
14119;DHT22;7138;49.246;9.100;2023-04-28T08:23:47;10.80;99.90
14119;DHT22;7138;49.246;9.100;2023-04-28T08:26:13;10.80;99.90
14119;DHT22;7138;49.246;9.100;2023-04-28T08:28:39;10.80;99.90
14119;DHT22;7138;49.246;9.100;2023-04-28T08:31:06;10.80;99.90
14119;DHT22;7138;49.246;9.100;2023-04-28T08:33:32;10.90;99.90
14119;DHT22;7138;49.246;9.100;2023-04-28T08:35:58;11.00;99.90
14119;DHT22;7138;49.246;9.100;2023-04-28T08:38:24;11.00;99.90
14119;DHT22;7138;49.246;9.100;2023-04-28T08:40:50;11.10;99.90
14119;DHT22;7138;49.246;9.100;2023-04-28T08:43:17;11.10;99.90
14119;DHT22;7138;49.246;9.100;2023-04-28T08:45:45;11.10;99.90
14119;DHT22;7138;49.246;9.100;2023-04-28T08:48:17;11.10;99.90
14119;DHT22;7138;49.246;9.100;2023-04-28T08:50:48;11.10;99.90
14119;DHT22;7138;49.246;9.100;2023-04-28T08:53:20;11.10;99.90
14119;DHT22;7138;49.246;9.100;2023-04-28T08:55:51;11.20;99.90
14119;DHT22;7138;49.246;9.100;2023-04-28T08:58:21;11.20;99.90
14119;DHT22;7138;49.246;9.100;2023-04-28T09:00:48;11.20;99.90
14119;DHT22;7138;49.246;9.100;2023-04-28T09:03:15;11.40;99.90
14119;DHT22;7138;49.246;9.100;2023-04-28T09:05:41;11.50;99.90
14119;DHT22;7138;49.246;9.100;2023-04-28T09:08:07;11.60;99.90
14119;DHT22;7138;49.246;9.100;2023-04-28T09:10:33;11.70;99.90
14119;DHT22;7138;49.246;9.100;2023-04-28T09:12:59;11.70;99.90
14119;DHT22;7138;49.246;9.100;2023-04-28T09:15:29;11.80;99.90
14119;DHT22;7138;49.246;9.100;2023-04-28T09:17:56;11.80;99.90
14119;DHT22;7138;49.246;9.100;2023-04-28T09:20:25;11.90;99.90
14119;DHT22;7138;49.246;9.100;2023-04-28T09:22:52;11.90;99.90
14119;DHT22;7138;49.246;9.100;2023-04-28T09:25:20;11.90;99.90
14119;DHT22;7138;49.246;9.100;2023-04-28T09:27:47;12.00;99.90
14119;DHT22;7138;49.246;9.100;2023-04-28T09:30:13;12.10;99.90
14119;DHT22;7138;49.246;9.100;2023-04-28T09:32:40;12.20;99.90
14119;DHT22;7138;49.246;9.100;2023-04-28T09:35:06;12.20;99.90
14119;DHT22;7138;49.246;9.100;2023-04-28T09:37:34;12.10;99.90
14119;DHT22;7138;49.246;9.100;2023-04-28T09:40:07;12.10;99.90
14119;DHT22;7138;49.246;9.100;2023-04-28T09:42:35;12.10;99.90
14119;DHT22;7138;49.246;9.100;2023-04-28T09:45:03;12.00;99.90
14119;DHT22;7138;49.246;9.100;2023-04-28T09:47:32;12.10;99.90
14119;DHT22;7138;49.246;9.100;2023-04-28T09:50:01;12.10;99.90
14119;DHT22;7138;49.246;9.100;2023-04-28T09:52:27;12.10;99.90
14119;DHT22;7138;49.246;9.100;2023-04-28T09:54:55;12.10;99.90
14119;DHT22;7138;49.246;9.100;2023-04-28T09:57:22;12.10;99.90
14119;DHT22;7138;49.246;9.100;2023-04-28T09:59:50;12.20;99.90
14119;DHT22;7138;49.246;9.100;2023-04-28T10:02:18;12.10;99.90
14119;DHT22;7138;49.246;9.100;2023-04-28T10:04:47;12.10;99.90
14119;DHT22;7138;49.246;9.100;2023-04-28T10:07:15;12.10;99.90
14119;DHT22;7138;49.246;9.100;2023-04-28T10:09:42;12.20;99.90
14119;DHT22;7138;49.246;9.100;2023-04-28T10:12:20;12.30;99.90
14119;DHT22;7138;49.246;9.100;2023-04-28T10:14:47;12.30;99.90
14119;DHT22;7138;49.246;9.100;2023-04-28T10:17:20;12.40;99.90
14119;DHT22;7138;49.246;9.100;2023-04-28T10:19:48;12.40;99.90
14119;DHT22;7138;49.246;9.100;2023-04-28T10:22:35;12.50;99.90
14119;DHT22;7138;49.246;9.100;2023-04-28T10:25:24;12.60;99.90
14119;DHT22;7138;49.246;9.100;2023-04-28T10:27:53;12.70;99.90
14119;DHT22;7138;49.246;9.100;2023-04-28T10:30:20;12.80;99.90
14119;DHT22;7138;49.246;9.100;2023-04-28T10:33:23;12.80;99.90
14119;DHT22;7138;49.246;9.100;2023-04-28T10:35:50;12.80;99.90
14119;DHT22;7138;49.246;9.100;2023-04-28T10:38:18;12.90;99.90
14119;DHT22;7138;49.246;9.100;2023-04-28T10:40:48;13.00;99.90
14119;DHT22;7138;49.246;9.100;2023-04-28T10:43:32;12.80;99.90
14119;DHT22;7138;49.246;9.100;2023-04-28T10:46:06;12.70;99.90
14119;DHT22;7138;49.246;9.100;2023-04-28T10:48:53;12.80;99.90
14119;DHT22;7138;49.246;9.100;2023-04-28T10:51:27;12.80;99.90
14119;DHT22;7138;49.246;9.100;2023-04-28T10:54:07;12.70;99.90
14119;DHT22;7138;49.246;9.100;2023-04-28T10:57:15;12.70;99.90
14119;DHT22;7138;49.246;9.100;2023-04-28T10:59:45;12.80;99.90
14119;DHT22;7138;49.246;9.100;2023-04-28T11:02:39;12.90;99.90
14119;DHT22;7138;49.246;9.100;2023-04-28T11:05:12;12.90;99.90
14119;DHT22;7138;49.246;9.100;2023-04-28T11:07:39;13.00;99.90
14119;DHT22;7138;49.246;9.100;2023-04-28T11:10:06;13.00;99.90
14119;DHT22;7138;49.246;9.100;2023-04-28T11:12:32;13.10;99.90
14119;DHT22;7138;49.246;9.100;2023-04-28T11:15:11;13.20;99.90
14119;DHT22;7138;49.246;9.100;2023-04-28T11:17:40;13.20;99.90
14119;DHT22;7138;49.246;9.100;2023-04-28T11:20:08;13.30;99.90
14119;DHT22;7138;49.246;9.100;2023-04-28T11:22:37;13.40;99.90
14119;DHT22;7138;49.246;9.100;2023-04-28T11:25:05;13.50;99.90
14119;DHT22;7138;49.246;9.100;2023-04-28T11:27:32;13.60;99.90
14119;DHT22;7138;49.246;9.100;2023-04-28T11:30:00;13.70;99.90
14119;DHT22;7138;49.246;9.100;2023-04-28T11:32:27;13.70;99.90
14119;DHT22;7138;49.246;9.100;2023-04-28T11:34:54;13.80;99.90
14119;DHT22;7138;49.246;9.100;2023-04-28T11:37:20;13.90;99.90
14119;DHT22;7138;49.246;9.100;2023-04-28T11:39:47;13.90;99.90
14119;DHT22;7138;49.246;9.100;2023-04-28T11:42:14;14.00;99.90
14119;DHT22;7138;49.246;9.100;2023-04-28T11:44:41;14.00;99.90
14119;DHT22;7138;49.246;9.100;2023-04-28T11:47:15;14.30;99.90
14119;DHT22;7138;49.246;9.100;2023-04-28T11:49:42;14.60;99.90
14119;DHT22;7138;49.246;9.100;2023-04-28T11:52:10;14.60;99.90
14119;DHT22;7138;49.246;9.100;2023-04-28T11:54:37;14.80;99.90
14119;DHT22;7138;49.246;9.100;2023-04-28T11:57:04;14.90;99.90
14119;DHT22;7138;49.246;9.100;2023-04-28T11:59:31;14.90;99.90
14119;DHT22;7138;49.246;9.100;2023-04-28T12:01:59;15.00;99.90
14119;DHT22;7138;49.246;9.100;2023-04-28T12:04:34;15.10;99.90
14119;DHT22;7138;49.246;9.100;2023-04-28T12:07:02;15.20;99.90
14119;DHT22;7138;49.246;9.100;2023-04-28T12:09:33;15.20;99.90
14119;DHT22;7138;49.246;9.100;2023-04-28T12:12:00;15.30;99.90
14119;DHT22;7138;49.246;9.100;2023-04-28T12:14:28;15.40;99.90
14119;DHT22;7138;49.246;9.100;2023-04-28T12:16:55;15.40;99.90
14119;DHT22;7138;49.246;9.100;2023-04-28T12:19:21;15.40;99.90
14119;DHT22;7138;49.246;9.100;2023-04-28T12:22:05;15.40;99.90
14119;DHT22;7138;49.246;9.100;2023-04-28T12:24:32;15.30;99.90
14119;DHT22;7138;49.246;9.100;2023-04-28T12:27:14;15.20;99.90
14119;DHT22;7138;49.246;9.100;2023-04-28T12:29:42;15.10;99.90
14119;DHT22;7138;49.246;9.100;2023-04-28T12:32:11;15.00;99.90
14119;DHT22;7138;49.246;9.100;2023-04-28T12:34:38;15.00;99.90
14119;DHT22;7138;49.246;9.100;2023-04-28T12:37:06;14.90;99.90
14119;DHT22;7138;49.246;9.100;2023-04-28T12:39:33;14.80;99.90
14119;DHT22;7138;49.246;9.100;2023-04-28T12:42:01;14.80;99.90
14119;DHT22;7138;49.246;9.100;2023-04-28T12:44:31;14.80;99.90
14119;DHT22;7138;49.246;9.100;2023-04-28T12:47:00;14.70;99.90
14119;DHT22;7138;49.246;9.100;2023-04-28T12:49:27;14.70;99.90
14119;DHT22;7138;49.246;9.100;2023-04-28T12:51:53;14.70;99.90
14119;DHT22;7138;49.246;9.100;2023-04-28T12:54:20;14.70;99.90
14119;DHT22;7138;49.246;9.100;2023-04-28T12:56:46;14.70;99.90
14119;DHT22;7138;49.246;9.100;2023-04-28T12:59:12;14.80;99.90
14119;DHT22;7138;49.246;9.100;2023-04-28T13:01:38;15.00;99.90
14119;DHT22;7138;49.246;9.100;2023-04-28T13:04:04;15.20;99.90
14119;DHT22;7138;49.246;9.100;2023-04-28T13:06:30;15.50;99.90
14119;DHT22;7138;49.246;9.100;2023-04-28T13:08:57;15.70;99.90
14119;DHT22;7138;49.246;9.100;2023-04-28T13:11:24;15.90;99.90
14119;DHT22;7138;49.246;9.100;2023-04-28T13:13:52;16.10;99.90
14119;DHT22;7138;49.246;9.100;2023-04-28T13:16:18;16.10;99.90
14119;DHT22;7138;49.246;9.100;2023-04-28T13:18:44;16.10;99.90
14119;DHT22;7138;49.246;9.100;2023-04-28T13:21:10;16.20;99.90
14119;DHT22;7138;49.246;9.100;2023-04-28T13:23:36;16.20;99.90
14119;DHT22;7138;49.246;9.100;2023-04-28T13:26:02;16.20;99.90
14119;DHT22;7138;49.246;9.100;2023-04-28T13:28:30;16.30;99.90
14119;DHT22;7138;49.246;9.100;2023-04-28T13:30:55;16.30;99.90
14119;DHT22;7138;49.246;9.100;2023-04-28T13:33:21;16.30;99.90
14119;DHT22;7138;49.246;9.100;2023-04-28T13:35:47;16.40;99.90
14119;DHT22;7138;49.246;9.100;2023-04-28T13:38:14;16.60;99.90
14119;DHT22;7138;49.246;9.100;2023-04-28T13:40:40;16.70;99.90
14119;DHT22;7138;49.246;9.100;2023-04-28T13:43:06;16.90;99.90
14119;DHT22;7138;49.246;9.100;2023-04-28T13:45:33;16.90;99.90
14119;DHT22;7138;49.246;9.100;2023-04-28T13:47:59;16.90;99.90
14119;DHT22;7138;49.246;9.100;2023-04-28T13:50:25;16.80;99.90
14119;DHT22;7138;49.246;9.100;2023-04-28T13:52:51;16.50;99.90
14119;DHT22;7138;49.246;9.100;2023-04-28T13:55:17;16.40;99.90
14119;DHT22;7138;49.246;9.100;2023-04-28T13:57:43;16.40;99.90
14119;DHT22;7138;49.246;9.100;2023-04-28T14:00:10;16.50;99.90
14119;DHT22;7138;49.246;9.100;2023-04-28T14:02:38;16.50;99.90
14119;DHT22;7138;49.246;9.100;2023-04-28T14:05:04;16.50;99.90
14119;DHT22;7138;49.246;9.100;2023-04-28T14:07:31;16.50;99.90
14119;DHT22;7138;49.246;9.100;2023-04-28T14:09:57;16.40;99.90
14119;DHT22;7138;49.246;9.100;2023-04-28T14:12:23;16.20;99.90
14119;DHT22;7138;49.246;9.100;2023-04-28T14:14:48;16.10;99.90
14119;DHT22;7138;49.246;9.100;2023-04-28T14:17:14;16.10;99.90
14119;DHT22;7138;49.246;9.100;2023-04-28T14:19:43;16.10;99.90
14119;DHT22;7138;49.246;9.100;2023-04-28T14:22:09;16.10;99.90
14119;DHT22;7138;49.246;9.100;2023-04-28T14:24:34;16.20;99.90
14119;DHT22;7138;49.246;9.100;2023-04-28T14:27:01;16.30;99.90
14119;DHT22;7138;49.246;9.100;2023-04-28T14:29:27;16.30;99.90
14119;DHT22;7138;49.246;9.100;2023-04-28T14:31:53;16.30;99.90
14119;DHT22;7138;49.246;9.100;2023-04-28T14:34:19;16.30;99.90
14119;DHT22;7138;49.246;9.100;2023-04-28T14:36:46;16.30;99.90
14119;DHT22;7138;49.246;9.100;2023-04-28T14:39:13;16.40;99.90
14119;DHT22;7138;49.246;9.100;2023-04-28T14:41:38;16.60;99.90
14119;DHT22;7138;49.246;9.100;2023-04-28T14:44:04;16.50;99.90
14119;DHT22;7138;49.246;9.100;2023-04-28T14:46:30;16.50;99.90
14119;DHT22;7138;49.246;9.100;2023-04-28T14:48:56;16.50;99.90
14119;DHT22;7138;49.246;9.100;2023-04-28T14:51:23;16.30;99.90
14119;DHT22;7138;49.246;9.100;2023-04-28T14:53:51;16.20;99.90
14119;DHT22;7138;49.246;9.100;2023-04-28T14:56:17;16.10;99.90
14119;DHT22;7138;49.246;9.100;2023-04-28T14:58:44;16.10;99.90
14119;DHT22;7138;49.246;9.100;2023-04-28T15:01:10;15.90;99.90
14119;DHT22;7138;49.246;9.100;2023-04-28T15:03:36;15.80;99.90
14119;DHT22;7138;49.246;9.100;2023-04-28T15:06:03;15.70;99.90
14119;DHT22;7138;49.246;9.100;2023-04-28T15:08:30;15.60;99.90
14119;DHT22;7138;49.246;9.100;2023-04-28T15:10:58;15.50;99.90
14119;DHT22;7138;49.246;9.100;2023-04-28T15:13:23;15.50;99.90
14119;DHT22;7138;49.246;9.100;2023-04-28T15:15:49;15.40;99.90
14119;DHT22;7138;49.246;9.100;2023-04-28T15:18:16;15.30;99.90
14119;DHT22;7138;49.246;9.100;2023-04-28T15:20:42;15.30;99.90
14119;DHT22;7138;49.246;9.100;2023-04-28T15:23:08;15.20;99.90
14119;DHT22;7138;49.246;9.100;2023-04-28T15:25:35;15.20;99.90
14119;DHT22;7138;49.246;9.100;2023-04-28T15:28:02;15.20;99.90
14119;DHT22;7138;49.246;9.100;2023-04-28T15:30:31;15.20;99.90
14119;DHT22;7138;49.246;9.100;2023-04-28T15:32:57;15.30;99.90
14119;DHT22;7138;49.246;9.100;2023-04-28T15:35:23;15.30;99.90
14119;DHT22;7138;49.246;9.100;2023-04-28T15:37:49;15.30;99.90
14119;DHT22;7138;49.246;9.100;2023-04-28T15:40:17;15.20;99.90
14119;DHT22;7138;49.246;9.100;2023-04-28T15:42:44;15.20;99.90
14119;DHT22;7138;49.246;9.100;2023-04-28T15:45:18;15.10;99.90
14119;DHT22;7138;49.246;9.100;2023-04-28T15:47:45;15.00;99.90
14119;DHT22;7138;49.246;9.100;2023-04-28T15:50:12;14.80;99.90
14119;DHT22;7138;49.246;9.100;2023-04-28T15:52:38;14.50;99.90